Time;durP1;ratioP1;P1;durP2;ratioP2;P2;SDS_P1;SDS_P2;PMS_P1;PMS_P2;Temp;Humidity;BMP_temperature;BMP_pressure;BME280_temperature;BME280_humidity;BME280_pressure;Samples;Min_cycle;Max_cycle;Signal;HPM_P1;HPM_P2
2022/11/14 00:00:39;;;;;;;10.40;7.40;;;;;;;9.38;66.90;101606.81;5022759;28;20160;-55
2022/11/14 00:03:06;;;;;;;11.13;7.47;;;;;;;9.40;67.10;101607.75;5021437;28;20022;-49
2022/11/14 00:05:31;;;;;;;10.80;7.60;;;;;;;9.37;67.22;101605.94;5022743;28;20401;-55
2022/11/14 00:07:57;;;;;;;9.25;7.03;;;;;;;9.33;66.90;101610.84;5020229;28;20086;-53
2022/11/14 00:10:23;;;;;;;9.98;8.10;;;;;;;9.23;66.99;101601.00;5019867;28;20414;-54
2022/11/14 00:12:48;;;;;;;9.00;7.38;;;;;;;9.18;67.01;101598.22;5022160;28;20458;-56
2022/11/14 00:15:14;;;;;;;10.60;7.28;;;;;;;9.19;66.82;101599.97;5021092;28;20034;-55
2022/11/14 00:17:39;;;;;;;10.73;7.30;;;;;;;9.20;66.64;101599.16;5017346;28;20042;-55
2022/11/14 00:20:07;;;;;;;9.20;7.35;;;;;;;9.12;66.66;101596.25;5021460;28;20155;-53
2022/11/14 00:22:32;;;;;;;9.60;7.03;;;;;;;9.06;67.10;101600.22;5018587;28;20524;-56
2022/11/14 00:24:58;;;;;;;9.95;7.05;;;;;;;9.08;66.81;101596.03;5018838;28;20132;-56
2022/11/14 00:27:23;;;;;;;11.50;7.20;;;;;;;9.13;67.01;101594.56;5023122;28;20118;-55
2022/11/14 00:29:49;;;;;;;9.30;6.72;;;;;;;9.11;66.54;101589.38;5019682;28;20397;-56
2022/11/14 00:32:14;;;;;;;8.00;6.70;;;;;;;9.07;66.97;101589.16;5021900;28;20064;-56
2022/11/14 00:34:40;;;;;;;8.88;6.65;;;;;;;9.05;66.79;101594.22;5023443;28;20032;-52
2022/11/14 00:37:05;;;;;;;8.50;6.60;;;;;;;9.06;66.64;101587.41;5024335;28;20069;-55
2022/11/14 00:39:30;;;;;;;10.10;6.43;;;;;;;8.97;66.64;101585.28;5021965;28;20045;-56
2022/11/14 00:41:56;;;;;;;8.95;6.75;;;;;;;8.99;66.61;101581.13;5020775;28;20029;-54
2022/11/14 00:44:21;;;;;;;9.48;6.85;;;;;;;8.78;66.68;101586.13;5021408;28;20040;-55
2022/11/14 00:46:47;;;;;;;8.55;6.47;;;;;;;8.81;67.08;101583.72;5023335;28;20514;-55
2022/11/14 00:49:12;;;;;;;9.27;6.25;;;;;;;8.76;67.56;101579.16;5020993;28;20427;-53
2022/11/14 00:51:37;;;;;;;8.20;6.60;;;;;;;8.79;66.99;101581.88;5021079;28;20038;-55
2022/11/14 00:54:03;;;;;;;9.48;6.47;;;;;;;8.72;67.57;101569.56;5022455;28;20034;-54
2022/11/14 00:56:28;;;;;;;8.95;6.35;;;;;;;8.75;67.48;101570.59;5019911;28;20033;-56
2022/11/14 00:58:54;;;;;;;9.65;6.68;;;;;;;8.67;66.88;101578.72;5022572;28;20030;-56
2022/11/14 01:01:19;;;;;;;11.27;6.75;;;;;;;8.72;67.55;101575.56;5021950;28;20040;-53
2022/11/14 01:03:49;;;;;;;8.65;6.68;;;;;;;8.66;67.54;101566.72;5020162;28;20026;-54
2022/11/14 01:06:15;;;;;;;15.02;6.40;;;;;;;8.62;67.81;101562.28;5018686;28;20057;-52
2022/11/14 01:08:41;;;;;;;8.98;6.70;;;;;;;8.55;67.84;101556.88;5021414;28;20664;-57
2022/11/14 01:11:17;;;;;;;8.10;6.60;;;;;;;8.50;67.72;101552.31;5017373;28;20048;-58
2022/11/14 01:13:42;;;;;;;8.60;6.68;;;;;;;8.43;68.05;101548.56;5016575;28;20425;-55
2022/11/14 01:16:09;;;;;;;8.20;6.10;;;;;;;8.39;68.53;101549.25;5019900;28;20099;-56
2022/11/14 01:18:36;;;;;;;9.18;6.43;;;;;;;8.43;68.17;101546.00;5019579;28;20486;-56
2022/11/14 01:21:05;;;;;;;10.63;6.60;;;;;;;8.38;68.65;101542.38;5013482;28;20040;-55
2022/11/14 01:23:30;;;;;;;7.85;6.43;;;;;;;8.39;68.52;101538.13;5021926;28;20025;-48
2022/11/14 01:26:01;;;;;;;9.32;6.47;;;;;;;8.37;68.28;101535.47;5018465;28;20091;-53
2022/11/14 01:28:27;;;;;;;10.55;6.45;;;;;;;8.38;68.43;101524.44;5021994;28;20041;-56
2022/11/14 01:30:52;;;;;;;8.40;6.30;;;;;;;8.25;68.65;101517.81;5018539;28;20033;-52
2022/11/14 01:33:17;;;;;;;8.73;6.40;;;;;;;8.28;68.84;101522.19;5020942;28;20041;-56
2022/11/14 01:35:43;;;;;;;9.27;6.50;;;;;;;8.19;68.90;101511.47;5020372;28;20025;-54
2022/11/14 01:38:13;;;;;;;11.05;6.40;;;;;;;8.03;69.30;101503.06;5023608;28;20038;-56
2022/11/14 01:40:43;;;;;;;8.40;5.80;;;;;;;7.93;69.97;101492.31;5021413;28;20482;-56
2022/11/14 01:43:17;;;;;;;8.45;6.38;;;;;;;7.83;70.40;101491.00;5005230;28;20128;-50
2022/11/14 01:45:46;;;;;;;9.15;6.30;;;;;;;7.73;70.73;101488.78;5019756;28;20525;-51
2022/11/14 01:48:26;;;;;;;10.98;6.90;;;;;;;7.74;70.67;101481.16;5023787;28;20025;-56
2022/11/14 01:51:22;;;;;;;9.45;6.28;;;;;;;7.80;70.49;101490.84;5017786;28;20080;-56
2022/11/14 01:53:51;;;;;;;9.88;6.70;;;;;;;7.82;71.10;101489.22;5019294;28;20132;-56
2022/11/14 01:56:22;;;;;;;8.87;6.90;;;;;;;7.83;70.58;101491.00;5020232;28;20033;-54
2022/11/14 01:58:59;;;;;;;9.18;6.68;;;;;;;7.99;70.53;101490.91;5020607;28;20037;-56
2022/11/14 02:01:25;;;;;;;10.07;6.40;;;;;;;7.99;70.24;101490.91;5020920;28;20417;-56
2022/11/14 02:03:52;;;;;;;10.27;6.90;;;;;;;8.02;70.30;101491.09;5021178;28;20045;-56
2022/11/14 02:06:20;;;;;;;10.38;6.07;;;;;;;8.10;70.05;101490.56;5019115;28;20030;-51
2022/11/14 02:08:47;;;;;;;9.93;6.80;;;;;;;8.10;70.10;101488.88;5017813;28;20057;-56
2022/11/14 02:11:13;;;;;;;9.95;6.80;;;;;;;8.16;70.12;101490.84;5017482;28;20029;-52
2022/11/14 02:13:38;;;;;;;9.43;6.68;;;;;;;8.13;69.72;101490.69;5018236;28;20032;-55
2022/11/14 02:16:05;;;;;;;9.57;6.78;;;;;;;8.21;69.75;101490.28;5012600;28;20045;-56
2022/11/14 02:18:30;;;;;;;10.20;6.72;;;;;;;8.17;69.70;101484.94;5005995;28;20029;-56
2022/11/14 02:20:56;;;;;;;10.20;6.35;;;;;;;8.09;69.60;101476.00;5022037;28;20083;-56
2022/11/14 02:23:29;;;;;;;9.60;6.78;;;;;;;8.09;70.12;101471.75;5015957;28;20037;-56
2022/11/14 02:25:54;;;;;;;8.35;6.18;;;;;;;8.08;69.83;101470.00;5021164;28;20029;-56
2022/11/14 02:28:20;;;;;;;13.10;6.80;;;;;;;8.10;69.94;101470.94;5017250;28;20088;-56
2022/11/14 02:30:47;;;;;;;9.02;6.65;;;;;;;8.07;70.12;101473.38;5018578;28;20073;-56
2022/11/14 02:33:12;;;;;;;9.73;7.00;;;;;;;8.09;69.68;101470.88;5017593;28;21031;-53
2022/11/14 02:35:37;;;;;;;9.45;6.68;;;;;;;8.10;69.56;101483.75;5017279;28;20034;-53
2022/11/14 02:38:03;;;;;;;9.60;6.80;;;;;;;8.04;69.65;101470.66;5022986;28;20034;-55
2022/11/14 02:40:28;;;;;;;10.70;6.90;;;;;;;8.07;69.69;101478.50;5021331;28;20056;-56
2022/11/14 02:42:54;;;;;;;8.75;7.10;;;;;;;8.01;69.85;101473.09;5018118;28;20108;-51
2022/11/14 02:45:19;;;;;;;10.23;7.47;;;;;;;7.95;70.04;101472.78;5019218;28;20041;-55
2022/11/14 02:47:45;;;;;;;10.18;6.78;;;;;;;7.91;69.91;101463.19;5021280;28;20033;-56
2022/11/14 02:50:10;;;;;;;9.90;7.72;;;;;;;7.85;70.33;101468.03;5018900;28;20451;-56
2022/11/14 02:52:36;;;;;;;11.75;7.70;;;;;;;7.84;70.30;101464.59;5019332;28;20120;-56
2022/11/14 02:55:02;;;;;;;11.13;8.43;;;;;;;7.86;70.38;101462.09;5023378;28;21106;-56
2022/11/14 02:57:27;;;;;;;10.80;7.72;;;;;;;7.84;70.39;101464.59;5017190;28;20120;-54
2022/11/14 02:59:52;;;;;;;11.00;7.82;;;;;;;7.78;70.60;101454.91;5003547;28;20537;-55
2022/11/14 03:02:18;;;;;;;11.50;7.93;;;;;;;7.79;70.50;101461.78;5020391;28;20389;-53
2022/11/14 03:04:43;;;;;;;11.23;7.45;;;;;;;7.75;70.58;101451.31;5023667;28;20037;-55
2022/11/14 03:07:09;;;;;;;10.02;7.28;;;;;;;7.76;70.71;101453.06;5023805;28;20371;-56
2022/11/14 03:09:34;;;;;;;11.75;7.75;;;;;;;7.73;70.68;101450.38;5025141;28;20498;-56
2022/11/14 03:11:59;;;;;;;11.30;7.95;;;;;;;7.76;71.16;101440.28;5024346;28;20543;-51
2022/11/14 03:14:25;;;;;;;9.77;7.30;;;;;;;7.70;70.61;101439.97;5021875;28;20030;-56
2022/11/14 03:16:50;;;;;;;12.45;7.55;;;;;;;7.69;70.66;101441.66;5017260;28;20120;-56
2022/11/14 03:19:15;;;;;;;11.02;7.65;;;;;;;7.68;70.67;101444.16;5020971;28;20372;-56
2022/11/14 03:21:41;;;;;;;9.50;7.13;;;;;;;7.63;70.85;101436.25;5002700;28;20080;-56
2022/11/14 03:24:06;;;;;;;10.27;7.95;;;;;;;7.64;70.96;101438.00;5019942;28;20045;-56
2022/11/14 03:26:32;;;;;;;13.88;7.55;;;;;;;7.64;70.77;101439.69;5022452;28;20038;-55
2022/11/14 03:28:57;;;;;;;12.05;8.00;;;;;;;7.60;71.05;101435.22;5021459;28;20037;-56
2022/11/14 03:31:22;;;;;;;10.10;7.70;;;;;;;7.60;70.88;101430.13;5008068;28;20125;-54
2022/11/14 03:33:48;;;;;;;12.98;7.78;;;;;;;7.57;70.75;101430.81;5022311;28;20493;-48
2022/11/14 03:36:14;;;;;;;11.15;7.78;;;;;;;7.57;71.03;101427.38;5023452;28;20036;-54
2022/11/14 03:38:39;;;;;;;10.75;8.15;;;;;;;7.54;71.09;101425.56;5022685;28;20370;-54
2022/11/14 03:41:04;;;;;;;11.23;7.93;;;;;;;7.55;71.18;101423.88;5018466;28;20536;-53
2022/11/14 03:43:33;;;;;;;11.55;7.68;;;;;;;7.51;71.48;101427.97;5020844;28;20072;-55
2022/11/14 03:45:59;;;;;;;10.75;7.80;;;;;;;7.51;71.58;101426.28;5020311;28;20026;-55
2022/11/14 03:48:25;;;;;;;10.45;8.05;;;;;;;7.46;71.22;101424.28;5021030;28;20126;-56
2022/11/14 03:50:51;;;;;;;11.75;8.25;;;;;;;7.43;71.39;101421.59;5017894;28;21320;-53
2022/11/14 03:53:16;;;;;;;11.35;7.72;;;;;;;7.42;71.05;101425.84;5023100;28;20033;-56
2022/11/14 03:55:44;;;;;;;10.25;7.78;;;;;;;7.43;71.58;101419.03;5022764;28;20397;-55
2022/11/14 03:58:10;;;;;;;11.23;8.40;;;;;;;7.38;71.03;101423.91;5022553;28;20044;-57
2022/11/14 04:00:35;;;;;;;10.90;7.57;;;;;;;7.37;71.38;101423.84;5023408;28;20045;-52
2022/11/14 04:03:01;;;;;;;11.10;7.72;;;;;;;7.31;71.69;101413.31;5023638;28;20033;-53
2022/11/14 04:05:27;;;;;;;11.68;7.68;;;;;;;7.25;71.92;101409.66;5022718;28;20113;-52
2022/11/14 04:07:52;;;;;;;12.80;8.88;;;;;;;7.29;71.91;101410.69;5023977;28;20064;-48
2022/11/14 04:10:17;;;;;;;16.27;8.80;;;;;;;7.28;71.72;101398.72;5022818;28;20033;-54
2022/11/14 04:12:51;;;;;;;11.85;8.70;;;;;;;7.27;72.13;101404.59;5025224;28;20033;-52
2022/11/14 04:15:17;;;;;;;13.38;9.13;;;;;;;7.20;72.13;101402.53;5023558;28;20037;-56
2022/11/14 04:17:43;;;;;;;13.18;8.77;;;;;;;7.20;71.89;101392.31;5020180;28;20033;-53
2022/11/14 04:20:10;;;;;;;12.88;8.77;;;;;;;7.19;72.09;101395.69;5022637;28;20045;-53
2022/11/14 04:22:35;;;;;;;13.68;9.45;;;;;;;7.20;72.11;101392.31;5023815;28;20898;-55
2022/11/14 04:25:01;;;;;;;12.82;9.02;;;;;;;7.17;72.51;101390.50;5023455;28;20113;-52
2022/11/14 04:27:26;;;;;;;13.65;9.27;;;;;;;7.17;72.23;101384.50;5022657;28;20034;-50
2022/11/14 04:29:51;;;;;;;13.52;9.05;;;;;;;7.18;72.11;101382.00;5024533;28;20033;-56
2022/11/14 04:32:16;;;;;;;15.52;9.95;;;;;;;7.14;71.85;101385.22;5023794;28;20062;-56
2022/11/14 04:34:42;;;;;;;14.88;9.77;;;;;;;7.07;72.68;101372.91;5006462;28;20044;-51
2022/11/14 04:37:07;;;;;;;13.10;9.00;;;;;;;7.13;71.86;101378.34;5020250;28;20095;-55
2022/11/14 04:39:33;;;;;;;13.60;10.07;;;;;;;7.11;72.13;101377.41;5023118;28;20033;-50
2022/11/14 04:41:58;;;;;;;13.70;9.40;;;;;;;7.11;71.77;101382.50;5017575;28;20622;-56
2022/11/14 04:44:23;;;;;;;14.05;9.50;;;;;;;7.03;72.38;101380.34;5019125;28;20484;-56
2022/11/14 04:46:48;;;;;;;14.73;9.25;;;;;;;7.04;71.90;101380.44;5024070;28;20389;-56
2022/11/14 04:49:14;;;;;;;13.55;9.80;;;;;;;6.99;72.53;101374.22;5018226;28;20469;-52
2022/11/14 04:51:39;;;;;;;15.90;10.20;;;;;;;7.05;71.87;101376.22;5021967;28;20427;-55
2022/11/14 04:54:05;;;;;;;12.73;9.20;;;;;;;7.02;72.37;101376.03;5018395;28;20025;-53
2022/11/14 04:56:30;;;;;;;14.55;9.40;;;;;;;7.02;72.13;101376.91;5019829;28;20108;-56
2022/11/14 04:58:55;;;;;;;14.57;9.00;;;;;;;6.97;72.37;101381.78;5023177;28;20478;-56
2022/11/14 05:01:21;;;;;;;13.38;9.52;;;;;;;6.94;72.66;101370.56;5020028;28;20740;-55
2022/11/14 05:03:46;;;;;;;13.90;9.88;;;;;;;6.93;72.76;101373.91;5020117;28;20038;-51
2022/11/14 05:06:11;;;;;;;14.73;9.23;;;;;;;6.92;72.45;101370.47;5017288;28;20398;-55
2022/11/14 05:08:37;;;;;;;15.38;10.15;;;;;;;6.90;72.62;101363.50;5021426;28;20367;-55
2022/11/14 05:11:02;;;;;;;15.88;9.82;;;;;;;6.85;72.67;101363.28;5021408;28;20045;-56
2022/11/14 05:13:27;;;;;;;16.42;9.80;;;;;;;6.86;72.38;101372.72;5017809;28;20032;-55
2022/11/14 05:15:53;;;;;;;15.45;10.20;;;;;;;6.83;72.44;101366.56;5018839;28;20033;-53
2022/11/14 05:18:18;;;;;;;15.93;9.73;;;;;;;6.90;72.66;101360.97;5017375;28;20037;-55
2022/11/14 05:20:43;;;;;;;13.10;9.77;;;;;;;6.81;72.55;101352.84;5005433;28;20124;-55
2022/11/14 05:23:20;;;;;;;13.20;9.18;;;;;;;6.88;72.54;101350.66;5020302;28;20127;-54
2022/11/14 05:25:46;;;;;;;14.18;9.68;;;;;;;6.81;72.43;101338.38;5020336;28;20025;-56
2022/11/14 05:28:12;;;;;;;14.60;9.32;;;;;;;6.81;72.19;101343.50;5016801;28;20043;-56
2022/11/14 05:30:38;;;;;;;13.80;9.43;;;;;;;6.79;72.42;101345.06;5022349;28;20124;-52
2022/11/14 05:33:03;;;;;;;13.65;9.40;;;;;;;6.80;72.50;101338.31;5019514;28;20108;-52
2022/11/14 05:35:28;;;;;;;12.93;8.93;;;;;;;6.80;72.47;101343.41;5022584;28;20033;-52
2022/11/14 05:37:54;;;;;;;14.70;9.02;;;;;;;6.75;72.19;101348.28;5026740;28;20026;-56
2022/11/14 05:40:19;;;;;;;13.13;9.30;;;;;;;6.72;72.52;101343.00;5021056;28;20033;-52
2022/11/14 05:42:44;;;;;;;15.05;9.00;;;;;;;6.68;72.49;101342.00;5022003;28;20041;-56
2022/11/14 05:45:10;;;;;;;16.48;9.65;;;;;;;6.68;72.38;101336.00;5021759;28;20048;-60
2022/11/14 05:47:35;;;;;;;18.42;10.75;;;;;;;6.68;72.38;101336.00;5021887;28;20058;-54
2022/11/14 05:50:01;;;;;;;12.35;9.20;;;;;;;6.68;72.44;101341.13;5020934;28;20128;-54
2022/11/14 05:52:26;;;;;;;13.98;9.13;;;;;;;6.69;72.43;101327.53;5020571;28;20033;-54
2022/11/14 05:54:51;;;;;;;14.18;9.30;;;;;;;6.72;72.59;101322.56;5018741;28;20037;-55
2022/11/14 05:57:17;;;;;;;14.75;9.20;;;;;;;6.74;72.26;101323.53;5022583;28;20163;-56
2022/11/14 05:59:42;;;;;;;12.20;8.73;;;;;;;6.68;72.30;101326.66;5021729;28;20094;-55
2022/11/14 06:02:07;;;;;;;13.93;9.68;;;;;;;6.63;72.41;101327.22;5017799;28;20183;-52
2022/11/14 06:04:33;;;;;;;14.52;9.25;;;;;;;6.64;72.63;101329.84;5020374;28;20501;-52
2022/11/14 06:06:58;;;;;;;16.42;9.60;;;;;;;6.66;72.42;101328.22;5019659;28;20041;-55
2022/11/14 06:09:24;;;;;;;16.52;9.73;;;;;;;6.64;72.49;101329.84;5021847;28;20065;-56
2022/11/14 06:11:49;;;;;;;16.95;9.77;;;;;;;6.60;72.45;101327.03;5020812;28;20036;-55
2022/11/14 06:14:14;;;;;;;14.05;9.30;;;;;;;6.60;72.24;101332.16;5022879;28;20048;-54
2022/11/14 06:16:40;;;;;;;14.27;9.38;;;;;;;6.60;72.43;101329.59;5018553;28;20029;-54
2022/11/14 06:19:05;;;;;;;14.48;9.50;;;;;;;6.59;72.41;101340.63;5016335;28;20037;-55
2022/11/14 06:21:31;;;;;;;12.90;9.65;;;;;;;6.55;71.95;101329.38;5007461;28;20079;-56
2022/11/14 06:23:56;;;;;;;14.77;9.98;;;;;;;6.53;72.10;101327.53;5015384;28;20029;-55
2022/11/14 06:26:24;;;;;;;14.13;8.70;;;;;;;6.50;72.18;101335.06;5018693;28;20087;-56
2022/11/14 06:28:51;;;;;;;12.70;8.65;;;;;;;6.50;72.33;101342.72;5020741;28;20460;-53
2022/11/14 06:31:18;;;;;;;13.10;8.65;;;;;;;6.45;72.08;101338.25;5013008;28;20045;-55
2022/11/14 06:33:44;;;;;;;15.90;8.77;;;;;;;6.46;72.27;101344.22;5021692;28;20033;-56
2022/11/14 06:36:10;;;;;;;15.13;9.10;;;;;;;6.44;72.67;101336.50;5017335;28;20040;-56
2022/11/14 06:38:37;;;;;;;14.85;8.82;;;;;;;6.47;72.70;101334.88;5021729;28;20031;-54
2022/11/14 06:41:02;;;;;;;12.73;8.85;;;;;;;6.42;72.68;101332.09;5019184;28;20036;-55
2022/11/14 06:43:28;;;;;;;12.80;8.77;;;;;;;6.45;72.59;101332.25;5024699;28;20017;-55
2022/11/14 06:45:54;;;;;;;13.35;8.45;;;;;;;6.42;72.53;101330.41;5020509;28;20477;-55
2022/11/14 06:48:19;;;;;;;11.43;7.95;;;;;;;6.38;72.70;101330.19;5024711;28;20515;-56
2022/11/14 06:50:51;;;;;;;12.93;8.77;;;;;;;6.36;72.84;101330.09;5022814;28;20045;-53
2022/11/14 06:53:16;;;;;;;13.52;8.38;;;;;;;6.36;72.61;101335.19;5018666;28;20029;-55
2022/11/14 06:55:42;;;;;;;16.40;8.65;;;;;;;6.32;72.90;101327.31;5020558;28;20490;-57
2022/11/14 06:58:07;;;;;;;12.52;8.27;;;;;;;6.27;72.76;101339.84;5026700;28;20033;-55
2022/11/14 07:00:32;;;;;;;15.75;8.68;;;;;;;6.28;72.94;101341.59;5016977;28;20033;-55
2022/11/14 07:02:58;;;;;;;11.55;8.25;;;;;;;6.27;72.78;101342.38;5024856;28;20030;-56
2022/11/14 07:05:23;;;;;;;10.77;8.60;;;;;;;6.29;73.01;101347.56;5016489;28;20501;-54
2022/11/14 07:07:48;;;;;;;15.07;8.88;;;;;;;6.32;72.88;101352.84;5020210;28;20699;-56
2022/11/14 07:10:14;;;;;;;12.93;8.88;;;;;;;6.27;72.91;101344.94;5024286;28;20038;-54
2022/11/14 07:12:39;;;;;;;12.90;8.35;;;;;;;6.26;73.09;101343.19;5023588;28;20052;-50
2022/11/14 07:15:05;;;;;;;12.65;8.73;;;;;;;6.24;73.16;101351.53;5023978;28;20057;-52
2022/11/14 07:17:33;;;;;;;12.60;8.27;;;;;;;6.25;73.14;101349.09;5019387;28;20026;-50
2022/11/14 07:19:59;;;;;;;13.13;8.43;;;;;;;6.26;73.05;101345.75;5026477;28;20030;-57
2022/11/14 07:22:24;;;;;;;15.05;8.55;;;;;;;6.24;73.00;101351.53;5023487;28;20037;-54
2022/11/14 07:24:49;;;;;;;11.90;7.95;;;;;;;6.23;73.31;101340.47;5022585;28;20060;-55
2022/11/14 07:27:15;;;;;;;13.02;8.50;;;;;;;6.24;73.14;101354.09;5025274;28;20040;-50
2022/11/14 07:29:40;;;;;;;12.63;8.30;;;;;;;6.20;73.43;101347.97;5023637;28;20025;-55
2022/11/14 07:32:05;;;;;;;12.32;8.48;;;;;;;6.18;73.55;101347.00;5020244;28;20021;-57
2022/11/14 07:34:31;;;;;;;15.40;8.60;;;;;;;6.19;73.51;101346.22;5024497;28;20082;-54
2022/11/14 07:36:56;;;;;;;14.73;8.52;;;;;;;6.24;73.60;101336.22;5023594;28;20032;-56
2022/11/14 07:39:21;;;;;;;14.80;8.27;;;;;;;6.24;73.63;101338.78;5022907;28;20026;-56
2022/11/14 07:41:47;;;;;;;14.57;8.68;;;;;;;6.25;73.67;101337.97;5024168;28;20030;-55
2022/11/14 07:44:12;;;;;;;16.05;8.55;;;;;;;6.18;73.96;101337.66;5023257;28;20048;-56
2022/11/14 07:46:37;;;;;;;16.30;8.27;;;;;;;6.23;74.08;101331.91;5020295;28;20029;-60
2022/11/14 07:49:03;;;;;;;13.73;8.40;;;;;;;6.25;73.89;101327.75;5026162;28;20044;-52
2022/11/14 07:51:28;;;;;;;10.93;7.80;;;;;;;6.20;74.29;101313.91;5023128;28;20354;-55
2022/11/14 07:53:53;;;;;;;11.80;8.00;;;;;;;6.19;74.10;101320.69;5025789;28;20030;-54
2022/11/14 07:56:20;;;;;;;14.05;8.25;;;;;;;6.21;74.34;101324.19;5023414;28;20037;-55
2022/11/14 07:58:46;;;;;;;11.70;7.88;;;;;;;6.24;74.50;101324.34;5025953;28;20064;-55
2022/11/14 08:01:12;;;;;;;14.50;8.20;;;;;;;6.26;74.37;101327.88;5018836;28;20053;-56
2022/11/14 08:03:38;;;;;;;14.30;8.45;;;;;;;6.28;74.71;101323.72;5028237;28;20028;-56
2022/11/14 08:06:09;;;;;;;15.18;8.48;;;;;;;6.29;74.59;101320.34;5029194;28;20025;-59
2022/11/14 08:08:34;;;;;;;13.77;8.00;;;;;;;6.28;74.71;101312.63;5026077;28;20110;-58
2022/11/14 08:11:00;;;;;;;15.85;8.60;;;;;;;6.30;74.58;101316.13;5023377;28;20693;-54
2022/11/14 08:13:26;;;;;;;13.48;8.77;;;;;;;6.30;74.92;101321.22;5018858;28;20029;-56
2022/11/14 08:15:53;;;;;;;14.95;7.95;;;;;;;6.28;75.41;101315.16;5021509;28;20026;-49
2022/11/14 08:18:18;;;;;;;13.75;8.23;;;;;;;6.29;75.14;101310.13;5021467;28;20132;-50
2022/11/14 08:20:43;;;;;;;14.30;8.63;;;;;;;6.32;75.32;101305.19;5022183;28;20092;-51
2022/11/14 08:23:10;;;;;;;12.75;8.45;;;;;;;6.35;75.55;101304.47;5018667;28;20025;-49
2022/11/14 08:25:36;;;;;;;16.40;8.63;;;;;;;6.32;75.68;101300.09;5020311;28;20560;-54
2022/11/14 08:28:01;;;;;;;13.82;8.48;;;;;;;6.41;75.59;101304.78;5018535;28;20031;-48
2022/11/14 08:30:27;;;;;;;13.32;8.38;;;;;;;6.40;75.63;101295.38;5025242;28;20037;-50
2022/11/14 08:32:53;;;;;;;15.80;8.75;;;;;;;6.40;75.86;101293.69;5025143;28;20429;-49
2022/11/14 08:35:18;;;;;;;12.93;7.95;;;;;;;6.44;75.62;101292.19;5021963;28;20355;-53
2022/11/14 08:37:43;;;;;;;13.70;8.35;;;;;;;6.44;75.87;101293.06;5021054;28;20489;-53
2022/11/14 08:40:09;;;;;;;12.07;8.02;;;;;;;6.48;75.99;101288.97;5022801;28;20069;-49
2022/11/14 08:42:35;;;;;;;15.05;9.20;;;;;;;6.54;76.01;101296.06;5017942;28;20025;-52
2022/11/14 08:45:00;;;;;;;14.80;8.40;;;;;;;6.57;75.96;101289.47;5019341;28;20035;-50
2022/11/14 08:47:25;;;;;;;11.93;8.23;;;;;;;6.66;75.80;101289.03;5019584;28;20113;-50
2022/11/14 08:49:51;;;;;;;13.25;8.45;;;;;;;6.83;75.77;101284.78;5018249;28;20117;-51
2022/11/14 08:52:16;;;;;;;14.20;8.18;;;;;;;6.96;75.42;101295.66;5019920;28;20115;-50
2022/11/14 08:54:41;;;;;;;13.20;8.70;;;;;;;7.09;74.74;101283.47;5018705;28;20143;-52
2022/11/14 08:57:07;;;;;;;11.93;8.07;;;;;;;7.28;74.86;101291.28;5021043;28;20447;-53
2022/11/14 08:59:32;;;;;;;14.52;8.45;;;;;;;7.45;74.48;101284.38;5021937;28;20036;-50
2022/11/14 09:01:58;;;;;;;13.02;8.10;;;;;;;7.65;74.13;101282.78;5003232;28;20026;-52
2022/11/14 09:04:23;;;;;;;15.13;8.77;;;;;;;7.72;73.40;101280.56;5021400;28;20490;-49
2022/11/14 09:06:48;;;;;;;13.88;8.60;;;;;;;7.80;73.68;101283.47;5016118;28;20103;-50
2022/11/14 09:09:14;;;;;;;12.18;8.18;;;;;;;7.89;73.63;101277.91;5023539;28;20045;-50
2022/11/14 09:11:39;;;;;;;16.73;8.55;;;;;;;7.98;73.25;101275.75;5019679;28;20046;-49
2022/11/14 09:14:05;;;;;;;10.50;7.47;;;;;;;8.00;73.17;101272.41;5020612;28;20120;-51
2022/11/14 09:16:32;;;;;;;15.10;8.65;;;;;;;8.00;72.65;101272.41;5017297;28;20036;-51
2022/11/14 09:18:58;;;;;;;12.85;8.52;;;;;;;8.03;73.07;101262.34;5020978;28;20079;-50
2022/11/14 09:21:23;;;;;;;14.98;8.57;;;;;;;8.09;72.95;101266.84;5001343;28;20497;-49
2022/11/14 09:23:48;;;;;;;12.18;8.52;;;;;;;8.17;73.52;101259.50;5023419;28;20040;-51
2022/11/14 09:26:14;;;;;;;14.60;9.23;;;;;;;8.18;73.60;101267.25;5021818;28;20036;-51
2022/11/14 09:28:39;;;;;;;13.00;8.68;;;;;;;8.17;73.24;101262.06;5022254;28;20039;-49
2022/11/14 09:31:08;;;;;;;11.63;8.23;;;;;;;8.17;73.51;101267.19;5021624;28;20604;-51
2022/11/14 09:33:34;;;;;;;12.13;8.35;;;;;;;8.26;73.37;101259.91;5020817;28;20029;-51
2022/11/14 09:36:02;;;;;;;14.50;8.90;;;;;;;8.29;73.41;101253.22;5018385;28;20053;-50
2022/11/14 09:38:28;;;;;;;13.82;8.68;;;;;;;8.30;73.65;101256.66;5023223;28;20096;-49
2022/11/14 09:41:17;;;;;;;13.32;8.95;;;;;;;8.37;74.01;101255.25;5019002;28;20125;-50
2022/11/14 09:44:17;;;;;;;13.25;8.85;;;;;;;8.40;73.74;101242.59;5017815;28;20032;-52
2022/11/14 09:46:47;;;;;;;13.52;9.00;;;;;;;8.39;73.76;101239.16;5005480;28;20053;-50
2022/11/14 09:49:43;;;;;;;14.07;8.63;;;;;;;8.50;73.98;101242.19;5018410;28;20030;-49
2022/11/14 09:52:09;;;;;;;12.77;9.23;;;;;;;8.51;74.72;101237.13;5013704;28;20540;-50
2022/11/14 09:54:44;;;;;;;15.15;9.13;;;;;;;8.58;74.59;101243.38;5021334;28;20025;-48
2022/11/14 09:57:18;;;;;;;15.57;9.02;;;;;;;8.65;74.29;101250.50;5018250;28;20037;-51
2022/11/14 09:59:43;;;;;;;11.98;9.20;;;;;;;8.75;74.13;101255.22;5021675;28;20078;-50
2022/11/14 10:02:30;;;;;;;13.18;8.98;;;;;;;8.86;73.65;101250.53;5018540;28;20061;-51
2022/11/14 10:05:31;;;;;;;12.50;9.07;;;;;;;8.96;73.46;101250.09;5018884;28;20072;-49
2022/11/14 10:08:37;;;;;;;12.40;9.27;;;;;;;9.00;73.83;101251.97;5021996;28;20057;-48
2022/11/14 10:11:19;;;;;;;16.52;9.90;;;;;;;9.06;74.42;101241.09;5021220;28;20025;-53
2022/11/14 10:14:03;;;;;;;14.18;9.73;;;;;;;9.15;73.91;101241.44;5020397;28;20034;-49
2022/11/14 10:16:34;;;;;;;14.05;10.20;;;;;;;9.13;72.83;101243.06;5020593;28;20029;-49
2022/11/14 10:19:06;;;;;;;16.48;10.07;;;;;;;9.21;73.16;101249.38;5019311;28;20033;-52
2022/11/14 10:21:45;;;;;;;15.32;10.18;;;;;;;9.29;73.46;101247.13;5015242;28;20443;-48
2022/11/14 10:24:26;;;;;;;;;;;;;;;9.42;73.24;101238.22;5018002;28;20415;-50
2022/11/14 10:27:09;;;;;;;15.02;10.88;;;;;;;9.40;73.39;101240.69;5018366;28;20409;-49
2022/11/14 10:30:02;;;;;;;14.18;10.80;;;;;;;9.45;73.35;101238.31;5019060;28;20478;-58
2022/11/14 10:32:42;;;;;;;14.23;10.70;;;;;;;9.40;72.78;101236.47;5018930;28;20171;-49
2022/11/14 10:35:17;;;;;;;15.65;11.60;;;;;;;9.44;73.07;101234.00;5018935;28;20030;-48
2022/11/14 10:38:04;;;;;;;15.57;11.30;;;;;;;9.49;73.23;101227.38;5015833;28;20926;-49
2022/11/14 10:40:38;;;;;;;19.05;11.50;;;;;;;9.54;73.31;101224.16;5018329;28;20373;-50
2022/11/14 10:43:35;;;;;;;14.88;11.50;;;;;;;9.60;73.41;101226.97;5015622;28;20030;-49
2022/11/14 10:46:11;;;;;;;14.55;11.75;;;;;;;9.61;72.83;101221.00;5012632;28;20064;-50
2022/11/14 10:48:45;;;;;;;17.15;11.70;;;;;;;9.64;73.12;101217.66;5022765;28;20500;-49
2022/11/14 10:51:35;;;;;;;16.90;12.57;;;;;;;9.64;72.80;101223.66;5019544;28;20044;-51
2022/11/14 10:54:09;;;;;;;19.88;12.60;;;;;;;9.64;73.19;101226.22;5021423;28;20030;-50
2022/11/14 10:56:48;;;;;;;17.73;12.80;;;;;;;9.71;73.07;101221.31;5020742;28;20026;-49
2022/11/14 10:59:13;;;;;;;16.15;12.75;;;;;;;9.68;72.51;101222.09;5016534;28;20466;-49
2022/11/14 11:01:43;;;;;;;16.92;12.40;;;;;;;9.74;72.82;101221.44;5019790;28;20036;-48
2022/11/14 11:04:23;;;;;;;20.45;13.13;;;;;;;9.77;72.95;101213.84;5018146;28;20033;-49
2022/11/14 11:06:51;;;;;;;19.67;13.90;;;;;;;9.75;72.65;101207.78;5016719;28;20026;-50
2022/11/14 11:12:05;;;;;;;17.77;13.80;;;;;;;9.81;72.97;101197.75;5019555;28;20126;-48
2022/11/14 11:14:32;;;;;;;19.52;13.77;;;;;;;9.80;72.61;101191.72;5020894;28;20025;-52
2022/11/14 11:17:10;;;;;;;20.60;13.65;;;;;;;9.91;73.09;101189.56;5018129;28;20072;-50
2022/11/14 11:19:36;;;;;;;19.98;13.95;;;;;;;9.94;73.49;101184.50;5016714;28;20040;-49
2022/11/14 11:22:02;;;;;;;19.48;14.23;;;;;;;10.02;73.68;101183.13;5020537;28;20478;-50
2022/11/14 11:24:33;;;;;;;18.77;14.57;;;;;;;10.04;72.96;101181.47;5006450;28;20030;-49
2022/11/14 11:27:19;;;;;;;19.95;14.35;;;;;;;10.08;73.00;101172.19;5019631;28;20477;-50
2022/11/14 11:29:45;;;;;;;20.88;14.55;;;;;;;10.08;72.75;101172.19;5021466;28;20486;-48
2022/11/14 11:32:23;;;;;;;20.60;14.80;;;;;;;10.19;73.21;101173.41;5018276;28;20465;-59